Flight Track Log - Related Links

Times and Time Zones

All times are in EDT time to prevent confusion due to time zone crossing. See the DAL268 flight status page for this flight to view local times or setup timezone preferences in your user account.

Time Position Orientation Groundspeed Altitude Reporting Facility
EDT Latitude Longitude Course Direction KTS MPH feet Rate Location/Type
Tue 14:19:33 37.6150 -122.3820 North 11 13  Level FlightAware ADS-B
Tue 14:29:43 37.6070 -122.3810 322° Northwest 13 15 52 Level FlightAware ADS-B
Tue 14:30:34 37.6100 -122.3780 38° Northeast 88 101 424 Level FlightAware ADS-B
Tue 14:31:08 37.6310 -122.3650 26° Northeast 171 197 600 1,463 Climbing FlightAware ADS-B
Tue 14:31:15 37.6366 -122.3610 29° Northeast 172 198 1,000 3,273 Climbing FlightAware ADS-B
Tue 14:31:19 37.6393 -122.3580 41° Northeast 175 201 1,200 2,571 Climbing FlightAware ADS-B
Tue 14:31:22 37.6411 -122.3560 41° Northeast 177 204 1,300 1,667 Climbing FlightAware ADS-B
Tue 14:31:37 37.6501 -122.3440 47° Northeast 195 224 1,700 1,818 Climbing FlightAware ADS-B
Tue 14:31:55 37.6616 -122.3290 46° Northeast 205 236 2,300 1,765 Climbing FlightAware ADS-B
Tue 14:32:11 37.6737 -122.3130 46° Northeast 240 276 2,700 1,692 Climbing FlightAware ADS-B
Tue 14:32:34 37.6926 -122.2890 45° Northeast 267 307 3,400 2,118 Climbing FlightAware ADS-B
Tue 14:32:45 37.7034 -122.2780 39° Northeast 273 314 3,900 2,889 Climbing FlightAware ADS-B
Tue 14:33:01 37.7197 -122.2620 38° Northeast 274 315 4,700 3,053 Climbing FlightAware ADS-B
Tue 14:33:42 37.7623 -122.2200 38° Northeast 286 329 6,800 3,000 Climbing FlightAware ADS-B
Tue 14:34:07 37.7887 -122.1940 38° Northeast 294 338 8,000 3,000 Climbing FlightAware ADS-B
Tue 14:34:24 37.8072 -122.1760 38° Northeast 296 341 8,900 3,091 Climbing FlightAware ADS-B
Tue 14:34:40 37.8246 -122.1590 38° Northeast 299 344 9,700 2,217 Climbing FlightAware ADS-B
Tue 14:35:10 37.8598 -122.1250 37° Northeast 327 376 10,600 1,279 Climbing FlightAware ADS-B
Tue 14:35:41 37.8992 -122.0870 37° Northeast 367 422 11,000 1,161 Climbing FlightAware ADS-B
Tue 14:36:12 37.9421 -122.0450 38° Northeast 391 450 11,800 1,979 Climbing FlightAware ADS-B
Tue 14:37:18 38.0414 -121.9480 38° Northeast 408 470 14,200 2,192 Climbing FlightAware ADS-B
Tue 14:37:56 38.1000 -121.8910 37° Northeast 424 488 15,600 2,071 Climbing FlightAware ADS-B
Tue 14:38:42 38.1720 -121.8200 38° Northeast 436 502 17,100 2,000 Climbing FlightAware ADS-B
Tue 14:39:23 38.2370 -121.7560 38° Northeast 446 513 18,500 1,923 Climbing FlightAware ADS-B
Tue 14:40:00 38.2990 -121.6940 38° Northeast 456 525 19,600 1,807 Climbing FlightAware ADS-B
Tue 14:40:46 38.3770 -121.6180 37° Northeast 463 533 21,000 1,841 Climbing FlightAware ADS-B
Tue 14:41:28 38.4460 -121.5420 41° Northeast 468 539 22,300 1,535 Climbing FlightAware ADS-B
Tue 14:42:12 38.5060 -121.4480 51° Northeast 482 555 23,200 1,395 Climbing FlightAware ADS-B
Tue 14:42:54 38.5610 -121.3520 54° Northeast 489 563 24,300 1,538 Climbing FlightAware ADS-B
Tue 14:43:30 38.6100 -121.2670 54° Northeast 496 571 25,200 1,500 Climbing FlightAware ADS-B
Tue 14:44:10 38.6650 -121.1710 54° Northeast 503 579 26,200 1,357 Climbing FlightAware ADS-B
Tue 14:44:54 38.7260 -121.0660 53° Northeast 510 587 27,100 1,200 Climbing FlightAware ADS-B
Tue 14:45:30 38.7770 -120.9780 53° Northeast 517 595 27,800 1,184 Climbing FlightAware ADS-B
Tue 14:46:10 38.8350 -120.8770 54° Northeast 522 601 28,600 1,463 Climbing FlightAware ADS-B
Tue 14:46:52 38.8940 -120.7740 54° Northeast 519 597 29,800 1,725 Climbing FlightAware ADS-B
Tue 14:47:30 38.9490 -120.6790 53° Northeast 516 594 30,900 1,462 Climbing FlightAware ADS-B
Tue 14:48:10 39.0020 -120.5880 53° Northeast 517 595 31,700 1,267 Climbing FlightAware ADS-B
Tue 14:49:00 39.0740 -120.4630 53° Northeast 519 597 32,800 1,133 Climbing FlightAware ADS-B
Tue 14:49:40 39.1330 -120.3590 54° Northeast 520 598 33,400 1,125 Climbing FlightAware ADS-B
Tue 14:50:20 39.1920 -120.2570 53° Northeast 518 596 34,300 1,105 Climbing FlightAware ADS-B
Tue 14:50:56 39.2410 -120.1700 54° Northeast 520 598 34,800 975 Climbing FlightAware ADS-B
Tue 14:51:40 39.3040 -120.0590 54° Northeast 518 596 35,600 1,125 Climbing FlightAware ADS-B
Tue 14:52:16 39.3540 -119.9700 54° Northeast 515 593 36,300 1,026 Climbing FlightAware ADS-B
Tue 14:52:56 39.4110 -119.8710 53° Northeast 515 593 36,900 429 Climbing FlightAware ADS-B
Tue 14:53:40 39.4720 -119.7610 54° Northeast 513 590 36,900  Level FlightAware ADS-B
Tue 14:54:20 39.5280 -119.6620 54° Northeast 512 589 36,900  Level FlightAware ADS-B
Tue 14:55:03 39.5870 -119.5560 54° Northeast 514 592 36,900  Level FlightAware ADS-B
Tue 14:55:44 39.6440 -119.4540 54° Northeast 512 589 36,900  Level FlightAware ADS-B
Tue 14:56:28 39.7050 -119.3440 54° Northeast 510 587 36,900  Level FlightAware ADS-B
Tue 14:57:09 39.7580 -119.2490 54° Northeast 509 586 36,900  Level FlightAware ADS-B
Tue 14:57:44 39.8100 -119.1550 54° Northeast 506 582 36,900  Level FlightAware ADS-B
Tue 14:58:24 39.8640 -119.0560 55° Northeast 510 587 36,900  Level FlightAware ADS-B
Tue 14:59:08 39.9210 -118.9520 54° Northeast 508 585 36,900  Level FlightAware ADS-B
Tue 14:59:48 39.9800 -118.8450 54° Northeast 509 586 36,900  Level FlightAware ADS-B
Tue 15:00:32 40.0380 -118.7380 55° Northeast 507 583 36,900  Level FlightAware ADS-B
Tue 15:01:14 40.0960 -118.6320 54° Northeast 507 583 36,900  Level FlightAware ADS-B
Tue 15:01:54 40.1390 -118.5250 62° Northeast 500 575 36,900  Level FlightAware ADS-B
Tue 15:02:37 40.1730 -118.4050 70° East 501 577 36,900  Level FlightAware ADS-B
Tue 15:03:18 40.2050 -118.2880 70° East 501 577 36,900  Level FlightAware ADS-B
Tue 15:04:02 40.2390 -118.1620 70° East 501 577 36,900  Level FlightAware ADS-B
Tue 15:04:43 40.2710 -118.0470 70° East 501 577 36,900  Level FlightAware ADS-B
Tue 15:05:26 40.3070 -117.9410 66° East 504 580 36,900  Level FlightAware ADS-B
Tue 15:06:02 40.3360 -117.8550 66° East 504 580 36,900  Level FlightAware ADS-B
Tue 15:06:50 40.3740 -117.7410 66° East 504 580 36,900  Level FlightAware ADS-B
Tue 15:07:26 40.4030 -117.6550 66° East 504 580 36,900  Level FlightAware ADS-B
Tue 15:08:15 40.4430 -117.5390 66° East 504 580 36,900  Level FlightAware ADS-B
Tue 15:08:51 40.4720 -117.4530 66° East 504 580 36,900  Level FlightAware ADS-B
Tue 15:09:54 40.5230 -117.3030 66° East 504 580 36,900  Level FlightAware ADS-B
Tue 15:10:16 40.5400 -117.2510 67° East 504 580 36,900  Level FlightAware ADS-B
Tue 15:11:40 40.6080 -117.0500 66° East 504 580 36,900  Level FlightAware ADS-B
Tue 15:12:27 40.6460 -116.9380 66° East 504 580 36,900  Level FlightAware ADS-B
Tue 15:13:03 40.6750 -116.8520 66° East 504 580 36,900  Level FlightAware ADS-B
Tue 15:13:37 40.7020 -116.7710 66° East 504 580 36,900  Level FlightAware ADS-B
Tue 15:14:26 40.7420 -116.6540 66° East 504 580 36,900 20 Level FlightAware ADS-B
Tue 15:18:42 41.1880 -115.7570 56° Northeast 505 581 37,000 20 Climbing FlightAware ADS-B
Tue 15:19:24 41.2270 -115.6370 67° East 507 583 37,000  Level FlightAware ADS-B
Tue 15:20:06 41.2730 -115.5210 62° Northeast 510 587 37,000  Level FlightAware ADS-B
Tue 15:20:40 41.3120 -115.4300 60° Northeast 509 586 37,000  Level FlightAware ADS-B
Tue 15:21:26 41.3670 -115.3070 59° Northeast 509 586 37,000  Level FlightAware ADS-B
Tue 15:22:06 41.4150 -115.1970 60° Northeast 507 583 37,000  Level FlightAware ADS-B
Tue 15:22:50 41.4670 -115.0800 59° Northeast 505 581 37,000  Level FlightAware ADS-B
Tue 15:23:48 41.5350 -114.9250 60° Northeast 504 580 37,000  Level FlightAware ADS-B
Tue 15:24:25 41.5800 -114.8240 59° Northeast 503 579 37,000  Level FlightAware ADS-B
Tue 15:25:07 41.6270 -114.7140 60° Northeast 502 578 37,000  Level FlightAware ADS-B
Tue 15:25:52 41.6750 -114.6070 59° Northeast 502 578 37,000  Level FlightAware ADS-B
Tue 15:26:28 41.7180 -114.5100 59° Northeast 502 578 37,000  Level FlightAware ADS-B
Tue 15:27:11 41.7730 -114.3800 60° Northeast 502 578 37,000  Level FlightAware ADS-B
Tue 15:27:56 41.8250 -114.2610 60° Northeast 502 578 37,000  Level FlightAware ADS-B
Tue 15:28:40 41.8760 -114.1420 60° Northeast 504 580 37,000  Level FlightAware ADS-B
Tue 15:29:20 41.9230 -114.0320 60° Northeast 506 582 37,000  Level FlightAware ADS-B
Tue 15:30:04 41.9740 -113.9120 60° Northeast 507 583 37,000  Level FlightAware ADS-B
Tue 15:30:44 42.0200 -113.8040 60° Northeast 507 583 37,000  Level FlightAware ADS-B
Tue 15:31:28 42.0720 -113.6810 60° Northeast 507 583 37,000  Level FlightAware ADS-B
Tue 15:32:10 42.1210 -113.5660 60° Northeast 509 586 37,000  Level FlightAware ADS-B
Tue 15:32:52 42.1690 -113.4500 61° Northeast 509 586 37,000  Level FlightAware ADS-B
Tue 15:33:32 42.2140 -113.3420 61° Northeast 509 586 37,000  Level FlightAware ADS-B
Tue 15:34:14 42.2630 -113.2240 61° Northeast 508 585 37,000  Level FlightAware ADS-B
Tue 15:34:58 42.3120 -113.1040 61° Northeast 507 583 37,000  Level FlightAware ADS-B
Tue 15:35:38 42.3570 -112.9920 61° Northeast 507 583 37,000  Level FlightAware ADS-B
Tue 15:36:18 42.4010 -112.8840 61° Northeast 507 583 37,000  Level FlightAware ADS-B
Tue 15:37:12 42.4630 -112.7310 61° Northeast 506 582 37,000  Level FlightAware ADS-B
Tue 15:38:30 42.5460 -112.5270 61° Northeast 505 581 37,000  Level FlightAware ADS-B
Tue 15:39:27 42.6090 -112.3690 62° Northeast 503 579 37,000  Level FlightAware ADS-B
Tue 15:40:40 42.6790 -112.1980 61° Northeast 503 579 37,000  Level FlightAware ADS-B
Tue 15:41:16 42.7140 -112.1130 61° Northeast 503 579 37,000  Level FlightAware ADS-B
Tue 15:41:52 42.7480 -112.0280 61° Northeast 503 579 37,000  Level FlightAware ADS-B
Tue 15:42:55 42.8090 -111.8800 61° Northeast 503 579 37,000  Level FlightAware ADS-B
Tue 15:43:31 42.8430 -111.7950 61° Northeast 503 579 37,000  Level FlightAware ADS-B
Tue 15:44:05 42.8760 -111.7140 61° Northeast 503 579 37,000  Level FlightAware ADS-B
Tue 15:44:54 42.9230 -111.5990 61° Northeast 503 579 37,000  Level FlightAware ADS-B
Tue 15:45:31 42.9580 -111.5110 61° Northeast 503 579 37,000  Level FlightAware ADS-B
Tue 15:46:31 43.0160 -111.3690 61° Northeast 503 579 37,000  Level FlightAware ADS-B
Tue 15:47:07 43.0500 -111.2840 61° Northeast 503 579 37,000  Level FlightAware ADS-B
Tue 15:47:54 43.0950 -111.1730 61° Northeast 503 579 37,000  Level FlightAware ADS-B
Tue 15:48:30 43.1300 -111.0870 61° Northeast 503 579 37,000  Level FlightAware ADS-B
Tue 15:49:26 43.1264 -110.6303 61° Northeast 504 580 37,000  Level Salt Lake Center
Tue 15:50:28 43.1622 -110.4578 74° East 497 572 37,000  Level Salt Lake Center
Tue 15:51:30 43.2028 -110.2528 75° East 500 575 37,000  Level Salt Lake Center
Tue 15:52:32 43.2403 -110.0764 74° East 503 579 37,000  Level Salt Lake Center
Tue 15:53:34 43.2811 -109.8875 73° East 508 585 37,000  Level Salt Lake Center
Tue 15:54:35 43.3197 -109.6819 75° East 501 577 37,000  Level Salt Lake Center
Tue 15:55:37 43.3533 -109.5075 75° East 496 571 37,000  Level Salt Lake Center
Tue 15:56:39 43.4003 -109.3053 72° East 498 573 37,000  Level Salt Lake Center
Tue 15:57:41 43.4397 -109.1311 73° East 497 572 37,000  Level Salt Lake Center
Tue 15:58:43 43.4850 -108.9292 73° East 496 571 37,000  Level Salt Lake Center
Tue 15:59:44 43.5222 -108.7558 73° East 493 567 37,000  Level Salt Lake Center
Tue 16:00:46 43.5597 -108.5825 73° East 494 568 37,000  Level Salt Lake Center
Tue 16:01:48 43.6036 -108.3794 73° East 495 570 37,000  Level Salt Lake Center
Tue 16:02:50 43.6417 -108.2078 73° East 490 564 37,000  Level Salt Lake Center
Tue 16:03:52 43.6839 -108.0061 74° East 489 563 37,000  Level Salt Lake Center
Tue 16:04:54 43.7197 -107.8325 74° East 491 565 37,000  Level Salt Lake Center
Tue 16:05:56 43.7597 -107.6406 74° East 491 565 37,000  Level Salt Lake Center
Tue 16:06:58 43.7958 -107.4681 74° East 490 564 37,000  Level Salt Lake Center
Tue 16:07:59 43.8361 -107.2664 74° East 488 562 37,000  Level Salt Lake Center
Tue 16:09:01 43.8714 -107.0936 74° East 487 560 37,000  Level Salt Lake Center
Tue 16:09:55 43.9053 -106.9222 75° East 484 557 37,000  Level Denver Center
Tue 16:10:57 43.9397 -106.7494 74° East 485 558 37,000  Level Denver Center
Tue 16:11:59 43.9778 -106.5492 75° East 481 554 37,000  Level Denver Center
Tue 16:13:01 44.0008 -106.3739 80° East 483 556 37,000  Level Denver Center
Tue 16:14:03 44.0039 -106.1642 89° East 485 558 37,000  Level Denver Center
Tue 16:15:05 44.0036 -105.9847 90° East 485 558 37,000  Level Denver Center
Tue 16:16:07 44.0047 -105.7761 90° East 485 558 37,000  Level Denver Center
Tue 16:17:09 44.0039 -105.5978 90° East 484 557 37,000  Level Denver Center
Tue 16:18:11 44.0042 -105.3894 90° East 483 556 37,000  Level Denver Center
Tue 16:19:13 44.0044 -105.2111 90° East 483 556 37,000  Level Denver Center
Tue 16:20:15 44.0036 -105.0339 90° East 481 554 37,000  Level Denver Center
Tue 16:21:17 44.0031 -104.8250 90° East 482 555 37,000  Level Denver Center
Tue 16:22:19 44.0011 -104.6464 91° East 482 555 37,000  Level Denver Center
Tue 16:23:20 43.9992 -104.4389 91° East 481 554 37,000  Level Denver Center
Tue 16:24:22 43.9981 -104.2658 90° East 478 550 37,000  Level Denver Center
Tue 16:25:24 43.9956 -104.0619 91° East 474 545 37,000  Level Denver Center
Tue 16:26:26 43.9939 -103.8867 91° East 474 545 37,000  Level Denver Center
Tue 16:27:28 43.9900 -103.6822 91° East 474 545 37,000  Level Denver Center
Tue 16:28:30 43.9869 -103.5078 91° East 473 544 37,000  Level Denver Center
Tue 16:29:32 43.9853 -103.3344 91° East 471 542 37,000  Level Denver Center
Tue 16:30:33 43.9811 -103.1297 92° East 473 544 37,000  Level Denver Center
Tue 16:31:35 43.9858 -102.9544 88° East 480 552 37,000  Level Denver Center
Tue 16:32:37 44.0142 -102.7569 79° East 481 554 37,000  Level Denver Center
Tue 16:33:39 44.0411 -102.5767 78° East 478 550 37,000  Level Denver Center
Tue 16:34:41 44.0650 -102.3956 80° East 478 550 37,000  Level Denver Center
Tue 16:35:43 44.0897 -102.2142 79° East 478 550 37,000  Level Denver Center
Tue 16:36:45 44.1147 -102.0336 79° East 477 549 37,000  Level Denver Center
Tue 16:37:47 44.1419 -101.8144 80° East 478 550 37,000  Level Denver Center
Tue 16:38:48 44.1656 -101.6325 80° East 479 551 37,000  Level Denver Center
Tue 16:39:50 44.1878 -101.4522 80° East 474 545 37,000  Level Denver Center
Tue 16:40:52 44.2119 -101.2714 79° East 475 547 37,000  Level Denver Center
Tue 16:41:54 44.2353 -101.0936 80° East 470 541 37,000  Level Denver Center
Tue 16:42:27 44.2508 -100.9903 78° East 472 543 37,000  Level Minneapolis Center
Tue 16:43:29 44.2742 -100.8136 79° East 469 540 37,000  Level Minneapolis Center
Tue 16:44:31 44.2967 -100.6356 80° East 468 539 37,000  Level Minneapolis Center
Tue 16:45:33 44.3172 -100.4578 81° East 467 537 37,000  Level Minneapolis Center
Tue 16:46:35 44.3436 -100.2453 80° East 466 536 37,000  Level Minneapolis Center
Tue 16:47:37 44.3650 -100.0672 80° East 467 537 37,000  Level Minneapolis Center
Tue 16:48:39 44.3861 -99.8900 80° East 466 536 37,000  Level Minneapolis Center
Tue 16:49:41 44.4067 -99.7100 81° East 469 540 37,000  Level Minneapolis Center
Tue 16:50:43 44.4281 -99.5294 81° East 472 543 37,000  Level Minneapolis Center
Tue 16:51:45 44.4531 -99.3122 81° East 474 545 37,000  Level Minneapolis Center
Tue 16:52:47 44.4719 -99.1303 82° East 475 547 37,000  Level Minneapolis Center
Tue 16:53:49 44.4928 -98.9494 81° East 474 545 37,000  Level Minneapolis Center
Tue 16:59:49 44.6050 -97.8550 81° East 478 550 37,000  Level FlightAware ADS-B
Tue 17:00:27 44.6100 -97.7140 87° East 474 545 37,000  Level FlightAware ADS-B
Tue 17:00:58 44.6146 -97.6179 86° East 473 544 37,000  Level FlightAware ADS-B
Tue 17:01:29 44.6194 -97.5238 86° East 472 543 37,000  Level FlightAware ADS-B
Tue 17:01:59 44.6241 -97.4309 86° East 471 542 37,000  Level FlightAware ADS-B
Tue 17:02:36 44.6297 -97.3184 86° East 471 542 37,000  Level FlightAware ADS-B
Tue 17:03:07 44.6342 -97.2244 86° East 471 542 37,000  Level FlightAware ADS-B
Tue 17:03:38 44.6388 -97.1302 86° East 471 542 37,000  Level FlightAware ADS-B
Tue 17:04:08 44.6431 -97.0381 86° East 470 541 37,000  Level FlightAware ADS-B
Tue 17:04:41 44.6477 -96.9382 86° East 470 541 37,000  Level FlightAware ADS-B
Tue 17:05:17 44.6530 -96.8320 86° East 468 539 37,000  Level FlightAware ADS-B
Tue 17:06:26 44.6620 -96.6240 86° East 466 536 37,000  Level FlightAware ADS-B
Tue 17:07:05 44.6670 -96.5040 87° East 466 536 37,000  Level FlightAware ADS-B
Tue 17:07:41 44.6710 -96.3970 87° East 466 536 37,000  Level FlightAware ADS-B
Tue 17:08:26 44.6770 -96.2650 86° East 466 536 37,000  Level FlightAware ADS-B
Tue 17:08:37 44.6781 -96.2279 88° East 467 537 37,000  Level FlightAware ADS-B
Tue 17:09:37 44.6850 -96.0490 87° East 466 536 37,000  Level FlightAware ADS-B
Tue 17:10:23 44.6900 -95.9080 87° East 468 539 37,000  Level FlightAware ADS-B
Tue 17:10:59 44.6940 -95.7980 87° East 468 539 37,000  Level FlightAware ADS-B
Tue 17:11:57 44.6950 -95.6640 89° East 466 536 37,000  Level FlightAware ADS-B
Tue 17:12:43 44.6760 -95.4850 98° East 467 537 37,000  Level FlightAware ADS-B
Tue 17:13:23 44.6670 -95.3640 96° East 467 537 37,000  Level FlightAware ADS-B
Tue 17:14:07 44.6600 -95.2320 94° East 466 536 37,000  Level FlightAware ADS-B
Tue 17:14:41 44.6540 -95.1310 95° East 466 536 37,000  Level FlightAware ADS-B
Tue 17:15:24 44.6480 -95.0010 94° East 466 536 37,000  Level FlightAware ADS-B
Tue 17:16:05 44.6420 -94.8770 94° East 466 536 37,000  Level FlightAware ADS-B
Tue 17:16:47 44.6360 -94.7490 94° East 466 536 37,000  Level FlightAware ADS-B
Tue 17:17:30 44.6290 -94.6230 94° East 465 535 37,000  Level FlightAware ADS-B
Tue 17:18:13 44.6230 -94.4920 94° East 465 535 37,000  Level FlightAware ADS-B
Tue 17:18:53 44.6170 -94.3720 94° East 465 535 37,000  Level FlightAware ADS-B
Tue 17:19:29 44.6110 -94.2680 95° East 465 535 37,000  Level FlightAware ADS-B
Tue 17:20:09 44.6050 -94.1440 94° East 465 535 37,000  Level FlightAware ADS-B
Tue 17:20:51 44.5990 -94.0180 94° East 465 535 37,000  Level FlightAware ADS-B
Tue 17:21:27 44.5940 -93.9100 94° East 465 535 37,000  Level FlightAware ADS-B
Tue 17:22:13 44.5870 -93.7710 94° East 465 535 37,000  Level FlightAware ADS-B
Tue 17:22:53 44.5820 -93.6520 93° East 463 533 37,000  Level FlightAware ADS-B
Tue 17:23:37 44.5760 -93.5190 94° East 463 533 37,000  Level FlightAware ADS-B
Tue 17:24:18 44.5710 -93.4000 93° East 462 532 37,000  Level FlightAware ADS-B
Tue 17:24:56 44.5630 -93.2850 96° East 462 532 37,000  Level FlightAware ADS-B
Tue 17:25:43 44.5540 -93.1430 95° East 462 532 37,000  Level FlightAware ADS-B
Tue 17:26:23 44.5480 -93.0240 94° East 462 532 37,000  Level FlightAware ADS-B
Tue 17:27:05 44.5410 -92.9010 95° East 464 534 37,000  Level FlightAware ADS-B
Tue 17:27:45 44.5340 -92.7810 95° East 464 534 37,000  Level FlightAware ADS-B
Tue 17:28:32 44.5280 -92.6550 94° East 464 534 37,000  Level FlightAware ADS-B
Tue 17:29:08 44.5220 -92.5470 94° East 463 533 37,000  Level FlightAware ADS-B
Tue 17:29:52 44.5130 -92.4030 95° East 463 533 37,000  Level FlightAware ADS-B
Tue 17:33:12 44.4740 -91.8980 96° East 463 533 37,000  Level FlightAware ADS-B
Tue 17:33:55 44.4570 -91.7460 99° East 462 532 37,000  Level FlightAware ADS-B
Tue 17:34:48 44.4360 -91.5690 99° East 463 533 37,000  Level FlightAware ADS-B
Tue 17:35:49 44.4180 -91.3920 98° East 461 531 37,000  Level FlightAware ADS-B
Tue 17:36:30 44.4000 -91.2470 100° East 461 531 37,000  Level FlightAware ADS-B
Tue 17:37:15 44.3790 -91.0950 101° East 462 532 37,000  Level FlightAware ADS-B
Tue 17:37:59 44.3610 -90.9650 101° East 460 529 37,000  Level FlightAware ADS-B
Tue 17:38:39 44.3450 -90.8510 101° East 459 528 37,000  Level FlightAware ADS-B
Tue 17:39:21 44.3280 -90.7290 101° East 458 527 37,000  Level FlightAware ADS-B
Tue 17:39:57 44.3140 -90.6240 101° East 457 526 37,000  Level FlightAware ADS-B
Tue 17:40:40 44.2970 -90.4980 101° East 456 525 37,000  Level FlightAware ADS-B
Tue 17:41:16 44.2840 -90.3950 100° East 456 525 37,000  Level FlightAware ADS-B
Tue 17:41:57 44.2690 -90.2770 100° East 456 525 37,000  Level FlightAware ADS-B
Tue 17:42:40 44.2530 -90.1510 100° East 456 525 37,000  Level FlightAware ADS-B
Tue 17:43:17 44.2390 -90.0480 101° East 456 525 37,000  Level FlightAware ADS-B
Tue 17:44:01 44.2220 -89.9190 100° East 457 526 37,000  Level FlightAware ADS-B
Tue 17:44:45 44.2050 -89.7950 101° East 457 526 37,000  Level FlightAware ADS-B
Tue 17:45:25 44.1880 -89.6760 101° East 456 525 37,000  Level FlightAware ADS-B
Tue 17:46:09 44.1670 -89.5560 104° East 458 527 37,000  Level FlightAware ADS-B
Tue 17:46:46 44.1480 -89.4510 104° East 458 527 37,000  Level FlightAware ADS-B
Tue 17:47:42 44.1230 -89.3020 103° East 457 526 37,000  Level FlightAware ADS-B
Tue 17:48:18 44.1080 -89.2140 103° East 457 526 37,000  Level FlightAware ADS-B
Tue 17:48:56 44.0820 -89.0750 105° East 455 524 37,000  Level FlightAware ADS-B
Tue 17:49:41 44.0600 -88.9470 103° East 456 525 37,000  Level FlightAware ADS-B
Tue 17:50:20 44.0420 -88.8360 103° East 456 525 37,000  Level FlightAware ADS-B
Tue 17:50:57 44.0360 -88.7290 94° East 460 529 37,000  Level FlightAware ADS-B
Tue 17:51:44 44.0420 -88.5900 87° East 459 528 37,000  Level FlightAware ADS-B
Tue 17:52:24 44.0460 -88.4720 87° East 460 529 37,000  Level FlightAware ADS-B
Tue 17:53:09 44.0470 -88.3410 89° East 462 532 37,000  Level FlightAware ADS-B
Tue 17:53:44 44.0470 -88.2350 90° East 463 533 37,000  Level FlightAware ADS-B
Tue 17:54:25 44.0460 -88.1130 91° East 463 533 37,000  Level FlightAware ADS-B
Tue 17:55:05 44.0440 -87.9960 91° East 463 533 37,000  Level FlightAware ADS-B
Tue 17:55:43 44.0430 -87.8850 91° East 463 533 37,000  Level FlightAware ADS-B
Tue 17:56:23 44.0420 -87.7630 91° East 465 535 37,000  Level FlightAware ADS-B
Tue 17:57:09 44.0400 -87.6340 91° East 465 535 37,000  Level FlightAware ADS-B
Tue 17:58:01 44.0380 -87.4720 91° East 464 534 37,000  Level FlightAware ADS-B
Tue 17:58:45 44.0360 -87.3400 91° East 464 534 37,000  Level FlightAware ADS-B
Tue 17:59:23 44.0340 -87.2320 91° East 465 535 37,000 71 Level FlightAware ADS-B
Tue 18:00:09 44.0320 -87.0960 91° East 462 532 37,100 308 Climbing FlightAware ADS-B
Tue 18:00:41 44.0300 -87.0000 92° East 460 529 37,400 568 Climbing FlightAware ADS-B
Tue 18:01:23 44.0280 -86.8750 91° East 462 532 37,800 635 Climbing FlightAware ADS-B
Tue 18:02:06 44.0260 -86.7510 91° East 462 532 38,300 649 Climbing FlightAware ADS-B
Tue 18:02:37 44.0240 -86.6540 92° East 461 531 38,600 545 Climbing FlightAware ADS-B
Tue 18:03:23 44.0210 -86.5210 92° East 459 528 39,000 231 Climbing FlightAware ADS-B
Tue 18:04:21 44.0180 -86.3620 91° East 456 525 39,000  Level FlightAware ADS-B
Tue 18:04:58 44.0140 -86.2470 93° East 457 526 39,000  Level FlightAware ADS-B
Tue 18:05:40 44.0120 -86.1420 91° East 457 526 39,000  Level FlightAware ADS-B
Tue 18:06:26 44.0090 -86.0270 92° East 457 526 39,000  Level FlightAware ADS-B
Tue 18:07:02 44.0060 -85.9370 93° East 457 526 39,000  Level FlightAware ADS-B
Tue 18:07:51 44.0000 -85.7350 92° East 464 534 39,000  Level FlightAware ADS-B
Tue 18:08:27 43.9980 -85.6350 92° East 464 534 39,000  Level FlightAware ADS-B
Tue 18:09:18 43.9950 -85.5050 92° East 464 534 39,000  Level FlightAware ADS-B
Tue 18:09:54 43.9920 -85.4140 93° East 464 534 39,000  Level FlightAware ADS-B
Tue 18:10:53 43.9880 -85.2650 92° East 464 534 39,000  Level FlightAware ADS-B
Tue 18:11:36 43.9860 -85.1560 91° East 464 534 39,000  Level FlightAware ADS-B
Tue 18:12:23 43.9830 -85.0360 92° East 464 534 39,000  Level FlightAware ADS-B
Tue 18:13:06 43.9700 -84.8060 94° East 456 525 39,000  Level FlightAware ADS-B
Tue 18:13:42 43.9660 -84.7000 93° East 454 522 39,000  Level FlightAware ADS-B
Tue 18:14:26 43.9600 -84.5680 94° East 453 521 39,000  Level FlightAware ADS-B
Tue 18:16:03 43.9510 -84.3150 93° East 452 520 39,000  Level FlightAware ADS-B
Tue 18:17:26 43.9430 -84.1250 93° East 452 520 39,000  Level FlightAware ADS-B
Tue 18:18:27 43.9320 -83.8990 94° East 454 522 39,000  Level FlightAware ADS-B
Tue 18:19:07 43.9260 -83.7710 94° East 455 524 39,000  Level FlightAware ADS-B
Tue 18:19:50 43.9200 -83.6280 93° East 455 524 39,000  Level FlightAware ADS-B
Tue 18:20:30 43.9140 -83.5140 94° East 456 525 39,000  Level FlightAware ADS-B
Tue 18:21:06 43.9090 -83.4150 94° East 457 526 39,000  Level FlightAware ADS-B
Tue 18:21:56 43.9010 -83.2610 94° East 458 527 39,000  Level FlightAware ADS-B
Tue 18:22:33 43.8970 -83.1730 94° East 459 528 39,000  Level FlightAware ADS-B
Tue 18:23:17 43.8910 -83.0540 94° East 459 528 39,000  Level FlightAware ADS-B
Tue 18:23:57 43.8840 -82.9280 94° East 460 529 39,000  Level FlightAware ADS-B
Tue 18:24:40 43.8760 -82.7820 94° East 460 529 39,000  Level FlightAware ADS-B
Tue 18:25:26 43.8700 -82.6720 94° East 460 529 39,000  Level FlightAware ADS-B
Tue 18:26:03 43.8640 -82.5650 94° East 460 529 39,000  Level FlightAware ADS-B
Tue 18:26:39 43.8570 -82.4490 95° East 459 528 39,000  Level FlightAware ADS-B
Tue 18:27:17 43.8520 -82.3570 94° East 458 527 39,000  Level FlightAware ADS-B
Tue 18:28:06 43.8410 -82.1830 95° East 458 527 39,000  Level FlightAware ADS-B
Tue 18:28:46 43.8340 -82.0680 95° East 457 526 39,000  Level FlightAware ADS-B
Tue 18:29:31 43.8270 -81.9500 95° East 457 526 39,000  Level FlightAware ADS-B
Tue 18:30:11 43.8190 -81.8200 95° East 456 525 39,000  Level FlightAware ADS-B
Tue 18:30:56 43.8110 -81.6960 95° East 455 524 39,000  Level FlightAware ADS-B
Tue 18:31:26 43.8050 -81.6060 95° East 454 522 39,000  Level FlightAware ADS-B
Tue 18:32:11 43.7970 -81.4810 95° East 454 522 39,000  Level FlightAware ADS-B
Tue 18:32:51 43.7890 -81.3580 95° East 453 521 39,000  Level FlightAware ADS-B
Tue 18:33:41 43.7780 -81.2070 96° East 454 522 39,000  Level FlightAware ADS-B
Tue 18:34:36 43.7680 -81.0580 95° East 454 522 39,000  Level FlightAware ADS-B
Tue 18:35:17 43.7600 -80.9500 96° East 454 522 39,000  Level FlightAware ADS-B
Tue 18:36:01 43.7500 -80.8130 96° East 454 522 39,000  Level FlightAware ADS-B
Tue 18:36:41 43.7420 -80.7060 96° East 454 522 39,000  Level FlightAware ADS-B
Tue 18:37:26 43.7320 -80.5670 96° East 454 522 39,000  Level FlightAware ADS-B
Tue 18:38:06 43.7230 -80.4510 96° East 455 524 39,000  Level FlightAware ADS-B
Tue 18:39:07 43.7100 -80.2720 96° East 455 524 39,000  Level FlightAware ADS-B
Tue 18:39:50 43.7000 -80.1470 96° East 456 525 39,000  Level FlightAware ADS-B
Tue 18:40:28 43.6910 -80.0380 96° East 456 525 39,000  Level FlightAware ADS-B
Tue 18:41:11 43.6810 -79.9110 96° East 456 525 39,000  Level FlightAware ADS-B
Tue 18:41:51 43.6720 -79.7940 96° East 456 525 39,000  Level FlightAware ADS-B
Tue 18:42:29 43.6630 -79.6870 97° East 457 526 39,000  Level FlightAware ADS-B
Tue 18:43:25 43.6620 -79.5240 90° East 456 525 39,000  Level FlightAware ADS-B
Tue 18:44:02 43.6660 -79.4160 87° East 455 524 39,000  Level FlightAware ADS-B
Tue 18:44:49 43.6710 -79.2860 87° East 456 525 39,000  Level FlightAware ADS-B
Tue 18:45:26 43.6750 -79.1730 87° East 458 527 39,000  Level FlightAware ADS-B
Tue 18:46:13 43.6790 -79.0360 88° East 458 527 39,000  Level FlightAware ADS-B
Tue 18:46:54 43.6830 -78.9150 87° East 458 527 39,000  Level FlightAware ADS-B
Tue 18:47:28 43.6860 -78.8150 88° East 459 528 39,000  Level FlightAware ADS-B
Tue 18:48:12 43.6900 -78.6880 87° East 458 527 39,000  Level FlightAware ADS-B
Tue 18:48:52 43.6940 -78.5720 87° East 458 527 39,000  Level FlightAware ADS-B
Tue 18:49:36 43.6970 -78.4440 88° East 457 526 39,000  Level FlightAware ADS-B
Tue 18:50:14 43.7000 -78.3340 88° East 457 526 39,000  Level FlightAware ADS-B
Tue 18:50:58 43.7030 -78.2040 88° East 457 526 39,000  Level FlightAware ADS-B
Tue 18:51:42 43.7070 -78.0810 87° East 456 525 39,000  Level FlightAware ADS-B
Tue 18:52:24 43.7100 -77.9580 88° East 456 525 39,000  Level FlightAware ADS-B
Tue 18:53:04 43.7120 -77.8390 89° East 455 524 39,000  Level FlightAware ADS-B
Tue 18:53:49 43.7150 -77.7060 88° East 455 524 39,000  Level FlightAware ADS-B
Tue 18:54:29 43.7170 -77.5930 89° East 455 524 39,000  Level FlightAware ADS-B
Tue 18:55:11 43.7200 -77.4710 88° East 455 524 39,000  Level FlightAware ADS-B
Tue 18:55:55 43.7220 -77.3400 89° East 456 525 39,000  Level FlightAware ADS-B
Tue 18:56:34 43.7240 -77.2550 88° East 457 526 39,000  Level FlightAware ADS-B
Tue 18:57:04 43.7250 -77.1620 89° East 458 527 39,000  Level FlightAware ADS-B
Tue 18:57:42 43.7270 -77.0400 89° East 457 526 39,000  Level FlightAware ADS-B
Tue 18:58:28 43.7290 -76.8950 89° East 457 526 39,000  Level FlightAware ADS-B
Tue 18:59:20 43.7240 -76.7460 93° East 462 532 39,000  Level FlightAware ADS-B
Tue 19:00:00 43.6780 -76.6470 123° Southeast 470 541 39,000  Level FlightAware ADS-B
Tue 19:00:24 43.6400 -76.5960 136° Southeast 471 542 39,000  Level FlightAware ADS-B
Tue 19:01:08 43.5710 -76.5050 136° Southeast 472 543 39,000  Level FlightAware ADS-B
Tue 19:01:48 43.5070 -76.4230 137° Southeast 471 542 39,000  Level FlightAware ADS-B
Tue 19:02:32 43.4380 -76.3320 136° Southeast 472 543 39,000  Level FlightAware ADS-B
Tue 19:03:12 43.3770 -76.2510 136° Southeast 471 542 39,000  Level FlightAware ADS-B
Tue 19:03:58 43.3040 -76.1550 136° Southeast 470 541 39,000  Level FlightAware ADS-B
Tue 19:04:38 43.2390 -76.0710 137° Southeast 469 540 39,000  Level FlightAware ADS-B
Tue 19:05:18 43.1770 -75.9900 136° Southeast 468 539 39,000  Level FlightAware ADS-B
Tue 19:06:00 43.1110 -75.9040 136° Southeast 467 537 39,000  Level FlightAware ADS-B
Tue 19:06:46 43.0400 -75.8120 137° Southeast 466 536 39,000  Level FlightAware ADS-B
Tue 19:07:26 42.9770 -75.7310 137° Southeast 467 537 39,000  Level FlightAware ADS-B
Tue 19:08:10 42.9080 -75.6420 137° Southeast 466 536 39,000  Level FlightAware ADS-B
Tue 19:08:42 42.8590 -75.5800 137° Southeast 466 536 39,000  Level FlightAware ADS-B
Tue 19:09:24 42.7910 -75.4930 137° Southeast 467 537 39,000  Level FlightAware ADS-B
Tue 19:10:09 42.7210 -75.4040 137° Southeast 467 537 39,000  Level FlightAware ADS-B
Tue 19:10:50 42.6560 -75.3220 137° Southeast 466 536 39,000 -73 Level FlightAware ADS-B
Tue 19:11:31 42.6180 -75.2730 136° Southeast 464 534 38,900 -805 Descending FlightAware ADS-B
Tue 19:12:12 42.5310 -75.1630 137° Southeast 467 537 37,900 -1,271 Descending FlightAware ADS-B
Tue 19:12:56 42.4580 -75.0720 137° Southeast 470 541 37,100 -1,200 Descending FlightAware ADS-B
Tue 19:13:32 42.4000 -74.9990 137° Southeast 471 542 36,300 -857 Descending FlightAware ADS-B
Tue 19:14:13 42.3331 -74.9151 137° Southeast 476 548 36,000 -741 Descending FlightAware ADS-B
Tue 19:14:53 42.2685 -74.8347 137° Southeast 475 547 35,300 -2,080 Descending FlightAware ADS-B
Tue 19:15:28 42.2135 -74.7662 137° Southeast 471 542 33,400 -4,000 Descending FlightAware ADS-B
Tue 19:16:23 42.1215 -74.6523 137° Southeast 502 578 29,300 -2,695 Descending FlightAware ADS-B
Tue 19:17:26 42.0162 -74.5223 137° Southeast 452 520 28,100 -839 Descending FlightAware ADS-B
Tue 19:17:56 41.9764 -74.4662 134° Southeast 423 487 28,000 -115 Descending FlightAware ADS-B
Tue 19:18:18 41.9560 -74.4161 119° Southeast 413 475 28,000 -329 Level FlightAware ADS-B
Tue 19:19:09 41.9380 -74.2910 101° East 404 465 27,600 -571 Descending FlightAware ADS-B
Tue 19:19:21 41.9351 -74.2611 97° East 403 464 27,400 -1,607 Descending FlightAware ADS-B
Tue 19:20:05 41.9234 -74.1529 98° East 397 457 26,100 -1,778 Descending FlightAware ADS-B
Tue 19:20:15 41.9202 -74.1293 100° East 398 458 25,800 -1,655 Descending FlightAware ADS-B
Tue 19:20:34 41.9052 -74.0857 115° Southeast 397 457 25,300 -1,448 Descending FlightAware ADS-B
Tue 19:20:44 41.8936 -74.0670 130° Southeast 395 455 25,100 -1,200 Descending FlightAware ADS-B
Tue 19:21:19 41.8420 -74.0300 152° Southeast 433 498 24,400 -1,440 Descending FlightAware ADS-B
Tue 19:21:34 41.8038 -74.0279 178° South 422 486 23,900 -1,636 Descending FlightAware ADS-B
Tue 19:22:03 41.7438 -74.0330 184° South 449 517 23,200 -1,400 Descending FlightAware ADS-B
Tue 19:22:34 41.6794 -74.0393 184° South 445 512 22,500 -1,429 Descending FlightAware ADS-B
Tue 19:23:06 41.6142 -74.0451 184° South 439 505 21,700 -1,524 Descending FlightAware ADS-B
Tue 19:23:37 41.5505 -74.0504 184° South 439 505 20,900 -1,455 Descending FlightAware ADS-B
Tue 19:24:12 41.4814 -74.0559 183° South 433 498 20,100 -818 Descending FlightAware ADS-B
Tue 19:24:43 41.4207 -74.0607 183° South 429 494 20,000 -97 Descending FlightAware ADS-B
Tue 19:25:14 41.3593 -74.0674 185° South 430 495 20,000  Level FlightAware ADS-B
Tue 19:25:48 41.2921 -74.0773 186° South 427 491 20,000 -182 Level FlightAware ADS-B
Tue 19:26:20 41.2296 -74.0870 187° South 428 493 19,800 -484 Descending FlightAware ADS-B
Tue 19:26:50 41.1706 -74.0962 187° South 428 493 19,500 -750 Descending FlightAware ADS-B
Tue 19:27:24 41.1027 -74.1066 187° South 419 482 19,000 -789 Descending FlightAware ADS-B
Tue 19:27:28 41.0948 -74.1077 186° South 418 481 19,000  Level FlightAware ADS-B
Tue 19:27:55 41.0441 -74.1155 187° South 411 473 19,000  Level FlightAware ADS-B
Tue 19:27:59 41.0367 -74.1166 186° South 404 465 19,000  Level FlightAware ADS-B
Tue 19:28:29 40.9838 -74.1246 187° South 371 427 19,000  Level FlightAware ADS-B
Tue 19:28:43 40.9597 -74.1278 186° South 357 411 19,000  Level FlightAware ADS-B
Tue 19:28:52 40.9449 -74.1266 176° South 355 409 19,000  Level FlightAware ADS-B
Tue 19:29:00 40.9319 -74.1233 169° South 355 409 19,000  Level FlightAware ADS-B
Tue 19:29:02 40.9288 -74.1220 162° South 355 409 19,000  Level FlightAware ADS-B
Tue 19:29:04 40.9257 -74.1206 161° South 355 409 19,000  Level FlightAware ADS-B
Tue 19:29:11 40.9160 -74.1150 156° South 354 407 19,000 -750 Level FlightAware ADS-B
Tue 19:29:12 40.9146 -74.1141 154° Southeast 354 407 18,900 -750 Descending FlightAware ADS-B
Tue 19:29:19 40.9050 -74.1057 147° Southeast 352 405 18,900 -857 Level FlightAware ADS-B
Tue 19:29:26 40.8966 -74.0956 138° Southeast 350 403 18,700 -1,500 Descending FlightAware ADS-B
Tue 19:29:31 40.8914 -74.0875 130° Southeast 347 399 18,600 -1,333 Descending FlightAware ADS-B
Tue 19:29:35 40.8879 -74.0811 126° Southeast 346 398 18,500 -1,548 Descending FlightAware ADS-B
Tue 19:30:02 40.8640 -74.0338 124° Southeast 343 395 17,800 -1,548 Descending FlightAware ADS-B
Tue 19:30:06 40.8604 -74.0264 123° Southeast 343 395 17,700 -1,800 Descending FlightAware ADS-B
Tue 19:30:32 40.8378 -73.9790 122° Southeast 344 396 16,900 -1,800 Descending FlightAware ADS-B
Tue 19:30:36 40.8345 -73.9721 122° Southeast 344 396 16,800 -1,459 Descending FlightAware ADS-B
Tue 19:31:09 40.8067 -73.9146 123° Southeast 339 390 16,000 -1,433 Descending FlightAware ADS-B
Tue 19:31:43 40.7785 -73.8570 123° Southeast 331 381 15,200 -1,444 Descending FlightAware ADS-B
Tue 19:32:03 40.7632 -73.8219 120° Southeast 329 379 14,700 -1,355 Descending FlightAware ADS-B
Tue 19:32:14 40.7549 -73.8025 119° Southeast 327 376 14,500 -1,429 Descending FlightAware ADS-B
Tue 19:32:45 40.7325 -73.7489 119° Southeast 324 373 13,700 -1,543 Descending FlightAware ADS-B
Tue 19:32:49 40.7296 -73.7420 119° Southeast 328 377 13,600 -1,440 Descending FlightAware ADS-B
Tue 19:33:35 40.6970 -73.6640 119° Southeast 323 372 12,500 -1,403 Descending FlightAware ADS-B
Tue 19:34:06 40.6722 -73.6137 123° Southeast 319 367 11,800 -553 Descending FlightAware ADS-B
Tue 19:34:51 40.6303 -73.5463 129° Southeast 320 368 11,800 -286 Level FlightAware ADS-B
Tue 19:35:09 40.6066 -73.5298 152° Southeast 318 366 11,500 -1,200 Descending FlightAware ADS-B
Tue 19:35:21 40.5896 -73.5247 167° South 315 362 11,200 -1,440 Descending FlightAware ADS-B
Tue 19:35:34 40.5705 -73.5262 183° South 312 359 10,900 -1,636 Descending FlightAware ADS-B
Tue 19:36:05 40.5276 -73.5400 194° South 311 358 10,000 -1,579 Descending FlightAware ADS-B
Tue 19:36:12 40.5185 -73.5437 197° South 311 358 9,900 -1,286 Descending FlightAware ADS-B
Tue 19:36:19 40.5090 -73.5485 201° Southwest 310 357 9,700 -1,909 Descending FlightAware ADS-B
Tue 19:36:34 40.4895 -73.5599 204° Southwest 307 353 9,200 -1,935 Descending FlightAware ADS-B
Tue 19:36:50 40.4690 -73.5729 206° Southwest 301 346 8,700 -2,129 Descending FlightAware ADS-B
Tue 19:37:05 40.4497 -73.5853 206° Southwest 294 338 8,100 -2,318 Descending FlightAware ADS-B
Tue 19:37:34 40.4146 -73.6083 207° Southwest 290 334 7,000 -2,267 Descending FlightAware ADS-B
Tue 19:37:50 40.3962 -73.6211 208° Southwest 286 329 6,400 -2,308 Descending FlightAware ADS-B
Tue 19:38:00 40.3852 -73.6317 216° Southwest 285 328 6,000 -2,077 Descending FlightAware ADS-B
Tue 19:38:16 40.3741 -73.6530 236° Southwest 279 321 5,500 -2,087 Descending FlightAware ADS-B
Tue 19:38:23 40.3711 -73.6650 252° West 276 318 5,200 -2,571 Descending FlightAware ADS-B
Tue 19:38:30 40.3705 -73.6757 266° West 274 315 4,900 -2,769 Descending FlightAware ADS-B
Tue 19:38:36 40.3716 -73.6854 278° West 273 314 4,600 -2,400 Descending FlightAware ADS-B
Tue 19:38:40 40.3732 -73.6915 289° West 267 307 4,500 -1,667 Descending FlightAware ADS-B
Tue 19:39:12 40.3870 -73.7340 293° West 263 303 3,600 -1,672 Descending FlightAware ADS-B
Tue 19:39:41 40.4070 -73.7750 303° West 255 293 2,800 -1,368 Descending FlightAware ADS-B
Tue 19:40:09 40.4310 -73.8060 315° West 248 285 2,300 -750 Descending FlightAware ADS-B
Tue 19:40:37 40.4520 -73.8340 315° West 231 266 2,100 -353 Descending FlightAware ADS-B
Tue 19:40:43 40.4578 -73.8406 319° Northwest 224 258 2,100  Level FlightAware ADS-B
Tue 19:40:52 40.4648 -73.8481 321° Northwest 218 251 2,100  Level FlightAware ADS-B
Tue 19:41:00 40.4719 -73.8539 328° Northwest 214 246 2,100 -207 Level FlightAware ADS-B
Tue 19:41:21 40.4911 -73.8626 341° North 204 235 2,000 -231 Descending FlightAware ADS-B
Tue 19:41:26 40.4954 -73.8630 356° North 200 230 2,000 -500 Level FlightAware ADS-B
Tue 19:41:33 40.5018 -73.8625 North 195 224 1,900 -500 Descending FlightAware ADS-B
Tue 19:41:38 40.5065 -73.8615 North 194 223 1,900 -218 Level FlightAware ADS-B
Tue 19:42:28 40.5430 -73.8350 29° Northeast 177 204 1,700 -269 Descending FlightAware ADS-B
Tue 19:42:45 40.5540 -73.8270 29° Northeast 166 191 1,600 -750 Descending FlightAware ADS-B
Tue 19:43:08 40.5690 -73.8150 31° Northeast 150 173 1,200 -977 Descending FlightAware ADS-B
Tue 19:43:28 40.5810 -73.8060 30° Northeast 139 160 900 -913 Descending FlightAware ADS-B
Tue 19:43:54 40.5940 -73.7950 33° Northeast 126 145 500 -700 Descending FlightAware ADS-B
Tue 19:44:28 40.6110 -73.7820 30° Northeast 126 145 200 -529 Descending FlightAware ADS-B
Tue 19:44:56 40.6250 -73.7710 31° Northeast 127 146 -429 Descending FlightAware ADS-B
Tue 19:46:09 40.6420 -73.7590 28° Northeast 28 32  Level FlightAware ADS-B
Tue 19:46:57 40.6430 -73.7620 294° West 33 38  Level FlightAware ADS-B
Tue 19:47:09 40.6430 -73.7630 270° West 31 36  Level FlightAware ADS-B

Login

Don't have an account? Register now (free) for customized features, flight alerts, and more!